createdAt,value
2023-04-28T00:01:24.331Z,47.60
2023-04-28T00:05:25.522Z,48.25
2023-04-28T00:09:26.147Z,48.19
2023-04-28T00:13:26.810Z,47.82
2023-04-28T00:17:29.816Z,47.76
2023-04-28T00:21:30.184Z,48.13
2023-04-28T00:25:30.400Z,48.16
2023-04-28T00:29:33.154Z,48.79
2023-04-28T00:33:35.993Z,48.01
2023-04-28T00:37:39.811Z,47.74
2023-04-28T00:41:40.073Z,47.96
2023-04-28T00:45:40.284Z,48.14
2023-04-28T00:49:43.763Z,48.44
2023-04-28T00:53:44.450Z,48.10
2023-04-28T00:57:45.536Z,48.18
2023-04-28T01:01:47.760Z,48.51
2023-04-28T01:05:51.263Z,48.17
2023-04-28T01:09:51.860Z,48.29
2023-04-28T01:13:57.599Z,48.32
2023-04-28T01:17:59.150Z,48.57
2023-04-28T01:22:01.954Z,48.86
2023-04-28T01:26:04.779Z,49.63
2023-04-28T01:30:04.993Z,49.94
2023-04-28T01:34:05.217Z,50.17
2023-04-28T01:38:05.514Z,50.76
2023-04-28T01:42:08.932Z,49.92
2023-04-28T01:46:09.075Z,49.93
2023-04-28T01:50:10.821Z,50.23
2023-04-28T01:54:10.981Z,50.34
2023-04-28T01:58:13.796Z,50.58
2023-04-28T02:02:14.221Z,50.58
2023-04-28T02:06:14.488Z,51.48
2023-04-28T02:10:14.650Z,50.91
2023-04-28T02:14:17.965Z,50.17
2023-04-28T02:18:19.270Z,49.71
2023-04-28T02:22:19.520Z,49.42
2023-04-28T02:26:19.652Z,49.28
2023-04-28T02:30:22.800Z,50.87
2023-04-28T02:34:23.573Z,50.33
2023-04-28T02:38:23.811Z,50.81
2023-04-28T02:42:24.093Z,51.32
2023-04-28T02:46:27.204Z,51.74
2023-04-28T02:50:27.430Z,51.86
2023-04-28T02:54:30.342Z,52.04
2023-04-28T02:58:31.243Z,52.16
2023-04-28T03:02:34.134Z,51.92
2023-04-28T03:06:34.588Z,51.37
2023-04-28T03:10:34.863Z,50.34
2023-04-28T03:14:36.614Z,50.20
2023-04-28T03:18:39.407Z,49.98
2023-04-28T03:22:39.856Z,49.77
2023-04-28T03:26:40.122Z,50.48
2023-04-28T03:30:40.305Z,49.18
2023-04-28T03:34:43.157Z,49.10
2023-04-28T03:38:43.411Z,48.74
2023-04-28T03:42:43.575Z,48.58
2023-04-28T03:46:47.009Z,48.40
2023-04-28T03:50:49.870Z,48.40
2023-04-28T03:54:50.485Z,48.04
2023-04-28T03:58:53.817Z,47.74
2023-04-28T04:02:54.154Z,47.50
2023-04-28T04:06:57.230Z,47.33
2023-04-28T04:10:57.552Z,47.34
2023-04-28T04:14:57.905Z,46.98
2023-04-28T04:18:58.291Z,46.19
2023-04-28T04:23:08.864Z,46.80
2023-04-28T04:27:09.154Z,47.09
2023-04-28T04:31:15.480Z,46.51
2023-04-28T04:35:17.030Z,46.55
2023-04-28T04:39:19.857Z,46.51
2023-04-28T04:43:21.576Z,46.40
2023-04-28T04:47:24.254Z,45.93
2023-04-28T04:51:24.575Z,46.19
2023-04-28T04:55:28.198Z,46.32
2023-04-28T04:59:28.868Z,46.69
2023-04-28T05:03:35.502Z,46.88
2023-04-28T05:07:36.028Z,47.17
2023-04-28T05:11:38.995Z,46.93
2023-04-28T05:15:39.748Z,46.38
2023-04-28T05:20:12.841Z,46.19
2023-04-28T05:24:13.461Z,46.06
2023-04-28T05:28:17.076Z,45.93
2023-04-28T05:32:18.539Z,45.30
2023-04-28T05:36:19.142Z,45.98
2023-04-28T05:40:20.203Z,45.66
2023-04-28T05:44:23.246Z,45.34
2023-04-28T05:48:24.115Z,45.07
2023-04-28T05:52:24.333Z,45.97
2023-04-28T05:56:24.566Z,45.58
2023-04-28T06:00:27.789Z,45.40
2023-04-28T06:04:32.322Z,45.39
2023-04-28T06:08:33.658Z,44.86
2023-04-28T06:12:33.792Z,44.30
2023-04-28T06:16:37.195Z,45.13
2023-04-28T06:20:37.363Z,44.51
2023-04-28T06:24:37.654Z,44.24
2023-04-28T06:28:41.297Z,43.80
2023-04-28T06:32:46.926Z,43.83
2023-04-28T06:36:47.225Z,43.63
2023-04-28T06:40:48.135Z,43.66
2023-04-28T06:44:49.020Z,44.07
2023-04-28T06:48:51.883Z,43.47
2023-04-28T06:52:52.101Z,42.89
2023-04-28T06:56:52.214Z,42.99
2023-04-28T07:00:52.512Z,42.09
2023-04-28T07:04:55.733Z,42.30
2023-04-28T07:08:56.015Z,42.43
2023-04-28T07:12:56.261Z,41.78
2023-04-28T07:16:56.748Z,41.74
2023-04-28T07:20:59.695Z,41.47
2023-04-28T07:24:59.872Z,42.88
2023-04-28T07:29:00.124Z,43.22
2023-04-28T07:33:00.625Z,42.61
2023-04-28T07:37:03.910Z,42.15
2023-04-28T07:41:05.744Z,41.19
2023-04-28T07:45:09.803Z,41.44
2023-04-28T07:49:10.067Z,41.21
2023-04-28T07:53:13.043Z,41.38
2023-04-28T07:57:13.331Z,41.41
2023-04-28T08:01:13.531Z,42.71
2023-04-28T08:05:14.643Z,44.41
2023-04-28T08:09:17.664Z,46.54
2023-04-28T08:13:18.439Z,47.65
2023-04-28T08:17:18.644Z,49.63
2023-04-28T08:21:18.889Z,51.85
2023-04-28T08:25:21.719Z,51.26
2023-04-28T08:29:23.173Z,52.34
2023-04-28T08:33:24.382Z,52.11
2023-04-28T08:37:25.037Z,52.61
2023-04-28T08:41:30.169Z,53.27
2023-04-28T08:45:33.341Z,54.76
2023-04-28T08:49:39.527Z,55.29
2023-04-28T08:54:08.768Z,55.62
2023-04-28T08:58:07.831Z,56.31
2023-04-28T09:02:08.588Z,56.33
2023-04-28T09:06:09.003Z,57.67
2023-04-28T09:10:27.325Z,56.80
2023-04-28T09:14:31.538Z,56.71
2023-04-28T09:18:33.168Z,56.34
2023-04-28T09:22:35.650Z,56.15
2023-04-28T09:26:55.337Z,56.12
2023-04-28T09:30:58.913Z,55.08
2023-04-28T09:34:59.881Z,56.07
2023-04-28T09:39:02.198Z,56.86
2023-04-28T09:43:15.105Z,57.79
2023-04-28T09:47:26.093Z,57.41
2023-04-28T09:51:26.946Z,57.83
2023-04-28T09:55:29.366Z,58.46
2023-04-28T09:59:32.359Z,57.71
2023-04-28T10:03:35.567Z,57.88
2023-04-28T10:07:38.087Z,58.47
2023-04-28T10:12:15.890Z,58.70
2023-04-28T10:16:18.188Z,58.41
2023-04-28T10:20:23.679Z,59.10
2023-04-28T10:24:33.809Z,59.43
2023-04-28T10:28:35.131Z,59.92
2023-04-28T10:32:35.709Z,59.20
2023-04-28T10:36:57.767Z,59.75
2023-04-28T10:41:05.485Z,60.51
2023-04-28T10:45:05.951Z,60.22
2023-04-28T10:49:06.457Z,60.08
2023-04-28T10:53:12.232Z,60.28
2023-04-28T10:57:24.935Z,59.40
2023-04-28T11:01:35.351Z,59.47
2023-04-28T11:05:38.319Z,59.43
2023-04-28T11:09:59.114Z,58.36
2023-04-28T11:14:37.847Z,59.00
2023-04-28T11:19:07.665Z,58.59
2023-04-28T11:23:13.753Z,59.57
2023-04-28T11:27:31.291Z,60.26
2023-04-28T11:31:37.087Z,60.14
2023-04-28T11:35:46.499Z,60.45
2023-04-28T11:39:52.305Z,60.73
2023-04-28T11:43:57.058Z,59.93
2023-04-28T11:48:01.449Z,60.74
2023-04-28T11:52:10.788Z,61.12
2023-04-28T11:56:14.095Z,60.72
2023-04-28T12:00:23.485Z,59.85
2023-04-28T12:04:38.729Z,59.55
2023-04-28T12:08:43.742Z,59.32
2023-04-28T12:16:50.929Z,59.07
2023-04-28T12:20:51.845Z,59.98
2023-04-28T12:25:08.357Z,59.44
2023-04-28T12:29:10.341Z,60.35
2023-04-28T12:33:27.184Z,59.70
2023-04-28T12:37:27.347Z,59.59
2023-04-28T12:41:27.472Z,59.75
2023-04-28T12:45:27.904Z,59.62
2023-04-28T12:49:31.761Z,58.02
2023-04-28T12:53:31.921Z,59.05
2023-04-28T12:57:32.961Z,60.58
2023-04-28T13:01:34.071Z,60.79
2023-04-28T13:05:37.667Z,61.71
2023-04-28T13:09:38.579Z,62.88
2023-04-28T13:13:39.047Z,62.60
2023-04-28T13:17:39.942Z,62.77
2023-04-28T13:21:43.347Z,63.11
2023-04-28T13:25:44.744Z,62.46
2023-04-28T13:29:44.844Z,62.57
2023-04-28T13:33:45.440Z,61.76
2023-04-28T13:37:48.608Z,60.97
2023-04-28T13:41:49.190Z,62.10
2023-04-28T13:45:50.418Z,62.43
2023-04-28T13:49:50.936Z,60.67
2023-04-28T13:53:53.932Z,61.12
2023-04-28T14:03:05.989Z,58.93
2023-04-28T14:07:06.392Z,59.60
2023-04-28T14:11:09.629Z,60.75
2023-04-28T14:15:13.754Z,61.60
2023-04-28T14:19:17.542Z,62.22
2023-04-28T14:23:17.785Z,61.63
2023-04-28T14:27:20.618Z,61.70
2023-04-28T14:31:20.871Z,61.52
2023-04-28T14:35:22.142Z,61.17
2023-04-28T14:39:22.421Z,61.02
2023-04-28T14:43:26.184Z,60.99
2023-04-28T14:47:26.991Z,61.01
2023-04-28T14:51:27.905Z,60.76
2023-04-28T14:55:28.347Z,60.71
2023-04-28T14:59:31.261Z,60.39
2023-04-28T15:03:31.473Z,60.69
2023-04-28T15:07:32.779Z,60.98
2023-04-28T15:11:32.939Z,60.75
2023-04-28T15:15:35.815Z,60.12
2023-04-28T15:19:36.005Z,59.38
2023-04-28T15:23:36.178Z,59.94
2023-04-28T15:27:36.695Z,59.51
2023-04-28T15:31:41.280Z,58.81
2023-04-28T15:35:41.473Z,57.97
2023-04-28T15:39:41.603Z,57.84
2023-04-28T15:43:41.779Z,57.06
2023-04-28T15:47:46.932Z,55.41
2023-04-28T15:51:47.117Z,55.70
2023-04-28T15:55:47.370Z,56.45
2023-04-28T15:59:47.815Z,56.30
2023-04-28T16:03:50.916Z,56.46
2023-04-28T16:07:53.022Z,56.91
2023-04-28T16:11:53.331Z,57.05
2023-04-28T16:15:55.165Z,57.22
2023-04-28T16:19:58.086Z,58.14
2023-04-28T16:24:01.325Z,57.92
2023-04-28T16:28:02.464Z,58.79
2023-04-28T16:32:03.013Z,58.69
2023-04-28T16:36:06.839Z,59.47
2023-04-28T16:40:12.250Z,59.01
2023-04-28T16:44:12.862Z,59.63
2023-04-28T16:48:13.109Z,59.28
2023-04-28T16:52:16.871Z,60.17
2023-04-28T16:56:17.258Z,59.57
2023-04-28T17:00:19.343Z,57.90
2023-04-28T17:04:19.797Z,57.91
2023-04-28T17:08:23.018Z,59.14
2023-04-28T17:12:23.732Z,59.57
2023-04-28T17:16:24.081Z,60.26
2023-04-28T17:20:25.042Z,59.83
2023-04-28T17:24:28.400Z,59.60
2023-04-28T17:28:29.336Z,60.12
2023-04-28T17:32:31.230Z,60.47
2023-04-28T17:36:33.546Z,60.84
2023-04-28T17:40:45.032Z,60.17
2023-04-28T17:44:45.802Z,59.98
2023-04-28T17:48:49.198Z,61.01
2023-04-28T17:52:50.226Z,60.21
2023-04-28T17:56:55.013Z,61.16
2023-04-28T18:01:04.156Z,60.85
2023-04-28T18:05:08.265Z,61.26
2023-04-28T18:09:11.006Z,61.73
2023-04-28T18:13:14.442Z,63.19
2023-04-28T18:17:15.549Z,63.32
2023-04-28T18:21:16.747Z,63.04
2023-04-28T18:25:19.587Z,63.35
2023-04-28T18:29:23.080Z,62.95
2023-04-28T18:33:28.813Z,64.07
2023-04-28T18:37:37.301Z,64.32
2023-04-28T18:41:38.308Z,63.85
2023-04-28T18:45:44.305Z,63.56
2023-04-28T18:49:49.081Z,64.75
2023-04-28T18:53:50.674Z,65.23
2023-04-28T18:57:51.157Z,64.89
2023-04-28T19:01:53.960Z,64.91
2023-04-28T19:05:57.355Z,64.68
2023-04-28T19:10:00.394Z,64.47
2023-04-28T19:14:01.652Z,63.79
2023-04-28T19:18:06.882Z,63.50
2023-04-28T19:22:07.777Z,63.76
2023-04-28T19:26:08.162Z,63.91
2023-04-28T19:30:13.058Z,63.68
2023-04-28T19:34:16.617Z,63.75
2023-04-28T19:38:23.457Z,64.16
2023-04-28T19:42:24.965Z,63.71
2023-04-28T19:46:32.536Z,63.44
2023-04-28T19:50:38.165Z,63.11
2023-04-28T19:54:40.234Z,63.73
2023-04-28T19:58:41.302Z,64.24
2023-04-28T20:02:43.009Z,63.98
2023-04-28T20:06:46.609Z,64.02
2023-04-28T20:10:53.616Z,64.34
2023-04-28T20:14:54.923Z,66.04
2023-04-28T20:18:58.071Z,65.91
2023-04-28T20:23:01.658Z,66.43
2023-04-28T20:27:02.754Z,67.47
2023-04-28T20:31:07.866Z,68.22
2023-04-28T20:35:09.688Z,67.70
2023-04-28T20:39:18.590Z,68.81
2023-04-28T20:43:24.637Z,67.66
2023-04-28T20:47:25.094Z,67.40
2023-04-28T20:51:25.609Z,66.57
2023-04-28T20:55:29.033Z,66.08
2023-04-28T20:59:32.267Z,66.29
2023-04-28T21:03:33.665Z,67.46
2023-04-28T21:07:34.144Z,67.62
2023-04-28T21:11:37.603Z,67.70
2023-04-28T21:15:40.544Z,67.13
2023-04-28T21:19:40.762Z,68.05
2023-04-28T21:23:42.993Z,67.82
2023-04-28T21:27:55.617Z,68.13
2023-04-28T21:31:55.958Z,68.20
2023-04-28T21:35:56.287Z,68.23
2023-04-28T21:39:59.087Z,68.84
2023-04-28T21:44:02.650Z,68.36
2023-04-28T21:48:03.016Z,67.72
2023-04-28T21:52:03.480Z,67.02
2023-04-28T21:56:04.418Z,67.85
2023-04-28T22:00:13.129Z,68.13
2023-04-28T22:04:16.945Z,67.69
2023-04-28T22:08:17.816Z,66.97
2023-04-28T22:12:19.015Z,67.95
2023-04-28T22:16:21.873Z,68.43
2023-04-28T22:20:22.481Z,68.27
2023-04-28T22:24:23.279Z,67.75
2023-04-28T22:28:24.199Z,67.22
2023-04-28T22:32:27.763Z,67.86
2023-04-28T22:36:27.948Z,68.38
2023-04-28T22:40:28.113Z,68.46
2023-04-28T22:44:28.675Z,68.32
2023-04-28T22:48:31.536Z,67.46
2023-04-28T22:52:32.129Z,67.26
2023-04-28T22:56:32.352Z,67.96
2023-04-28T23:00:33.968Z,68.46
2023-04-28T23:04:40.223Z,67.82
2023-04-28T23:08:44.564Z,68.30
2023-04-28T23:12:45.142Z,68.70
2023-04-28T23:16:45.693Z,68.10
2023-04-28T23:20:50.808Z,68.69
2023-04-28T23:24:51.821Z,67.92
2023-04-28T23:28:52.075Z,67.96
2023-04-28T23:32:52.691Z,68.66
2023-04-28T23:36:55.498Z,68.72
2023-04-28T23:40:55.585Z,68.63
2023-04-28T23:44:56.084Z,68.80
2023-04-28T23:48:56.486Z,68.20
2023-04-28T23:52:59.189Z,69.37
2023-04-28T23:56:59.311Z,68.44
